createdAt,value
2023-10-17T00:01:34.226Z,5.82
2023-10-17T00:04:15.589Z,6.13
2023-10-17T00:06:43.915Z,6.07
2023-10-17T00:09:15.293Z,5.88
2023-10-17T00:11:53.450Z,6.18
2023-10-17T00:14:21.685Z,6.03
2023-10-17T00:16:49.712Z,5.95
2023-10-17T00:19:19.772Z,6.05
2023-10-17T00:21:50.348Z,6.35
2023-10-17T00:24:20.330Z,5.82
2023-10-17T00:26:49.695Z,6.50
2023-10-17T00:29:17.772Z,5.65
2023-10-17T00:31:47.247Z,6.22
2023-10-17T00:34:17.310Z,6.10
2023-10-17T00:37:01.805Z,5.80
2023-10-17T00:39:31.966Z,6.10
2023-10-17T00:42:29.047Z,5.90
2023-10-17T00:44:57.803Z,5.68
2023-10-17T00:47:27.404Z,6.00
2023-10-17T00:49:56.393Z,5.80
2023-10-17T00:52:30.545Z,5.50
2023-10-17T00:55:00.482Z,6.00
2023-10-17T00:57:29.227Z,5.53
2023-10-17T00:59:58.273Z,5.43
2023-10-17T01:02:31.602Z,5.22
2023-10-17T01:05:01.670Z,5.82
2023-10-17T01:07:31.841Z,5.57
2023-10-17T01:10:11.295Z,5.35
2023-10-17T01:12:51.625Z,5.53
2023-10-17T01:15:23.678Z,5.50
2023-10-17T01:17:55.829Z,5.70
2023-10-17T01:20:24.551Z,5.60
2023-10-17T01:22:57.945Z,6.00
2023-10-17T01:25:29.967Z,5.38
2023-10-17T01:28:01.926Z,5.18
2023-10-17T01:30:31.806Z,5.40
2023-10-17T01:33:00.712Z,5.13
2023-10-17T01:35:29.076Z,4.95
2023-10-17T01:37:57.551Z,4.90
2023-10-17T01:40:28.644Z,5.00
2023-10-17T01:42:59.254Z,4.97
2023-10-17T01:45:28.085Z,4.70
2023-10-17T01:47:56.945Z,5.10
2023-10-17T01:50:26.157Z,4.80
2023-10-17T01:52:55.295Z,4.43
2023-10-17T01:55:26.276Z,3.97
2023-10-17T01:57:58.578Z,4.25
2023-10-17T02:00:28.810Z,4.15
2023-10-17T02:02:57.106Z,3.92
2023-10-17T02:05:26.380Z,4.35
2023-10-17T02:07:55.917Z,4.43
2023-10-17T02:10:26.308Z,4.30
2023-10-17T02:12:55.998Z,3.80
2023-10-17T02:15:25.400Z,3.75
2023-10-17T02:17:55.179Z,3.83
2023-10-17T02:20:30.677Z,4.30
2023-10-17T02:25:33.950Z,3.78
2023-10-17T02:28:04.329Z,3.72
2023-10-17T02:30:33.118Z,3.90
2023-10-17T02:33:02.894Z,3.60
2023-10-17T02:35:37.655Z,4.10
2023-10-17T02:38:07.127Z,3.80
2023-10-17T02:40:39.639Z,3.90
2023-10-17T02:43:13.761Z,3.47
2023-10-17T02:45:43.575Z,3.42
2023-10-17T02:48:24.844Z,3.15
2023-10-17T02:50:59.929Z,3.60
2023-10-17T02:53:31.607Z,3.55
2023-10-17T02:56:08.482Z,3.70
2023-10-17T02:58:38.233Z,3.50
2023-10-17T03:01:06.378Z,3.50
2023-10-17T03:03:37.221Z,3.22
2023-10-17T03:06:06.810Z,3.08
2023-10-17T03:08:37.972Z,3.05
2023-10-17T03:11:09.439Z,2.95
2023-10-17T03:13:42.441Z,3.10
2023-10-17T03:16:18.064Z,2.88
2023-10-17T03:18:51.867Z,3.00
2023-10-17T03:21:21.887Z,3.22
2023-10-17T03:23:50.425Z,2.90
2023-10-17T03:26:21.730Z,3.00
2023-10-17T03:28:51.671Z,2.90
2023-10-17T03:31:22.697Z,2.95
2023-10-17T03:33:53.575Z,3.30
2023-10-17T03:36:44.801Z,3.13
2023-10-17T03:39:23.121Z,3.00
2023-10-17T03:41:57.636Z,3.00
2023-10-17T03:44:31.411Z,3.13
2023-10-17T03:47:05.244Z,3.10
2023-10-17T03:49:39.282Z,3.55
2023-10-17T03:52:08.398Z,3.05
2023-10-17T03:54:40.749Z,3.10
2023-10-17T03:57:16.837Z,2.92
2023-10-17T03:59:53.020Z,3.13
2023-10-17T04:02:23.740Z,2.83
2023-10-17T04:04:55.170Z,3.20
2023-10-17T04:07:25.982Z,3.60
2023-10-17T04:10:17.693Z,3.40
2023-10-17T04:12:50.938Z,3.25
2023-10-17T04:15:20.948Z,3.30
2023-10-17T04:17:49.200Z,3.25
2023-10-17T04:20:19.238Z,3.10
2023-10-17T04:22:47.286Z,3.60
2023-10-17T04:25:35.483Z,3.50
2023-10-17T04:28:03.786Z,3.40
2023-10-17T04:30:36.743Z,3.53
2023-10-17T04:33:11.084Z,3.38
2023-10-17T04:35:43.928Z,3.20
2023-10-17T04:38:19.906Z,3.30
2023-10-17T04:40:55.395Z,4.25
2023-10-17T04:43:37.483Z,3.30
2023-10-17T04:46:09.795Z,3.45
2023-10-17T04:48:41.774Z,3.38
2023-10-17T04:51:21.397Z,3.47
2023-10-17T04:53:50.321Z,3.80
2023-10-17T04:56:24.200Z,3.72
2023-10-17T04:58:55.985Z,3.03
2023-10-17T05:01:40.971Z,3.10
2023-10-17T05:04:25.703Z,3.40
2023-10-17T05:07:16.580Z,3.22
2023-10-17T05:10:02.489Z,4.05
2023-10-17T05:12:48.077Z,3.35
2023-10-17T05:15:33.600Z,4.22
2023-10-17T05:18:20.874Z,3.65
2023-10-17T05:21:06.577Z,3.50
2023-10-17T05:23:52.226Z,3.45
2023-10-17T05:26:37.836Z,3.50
2023-10-17T05:29:23.486Z,3.78
2023-10-17T05:32:23.786Z,3.70
2023-10-17T05:35:11.016Z,3.70
2023-10-17T05:37:56.592Z,3.58
2023-10-17T05:40:43.807Z,4.32
2023-10-17T05:43:31.221Z,3.80
2023-10-17T05:46:17.820Z,4.65
2023-10-17T05:49:04.447Z,4.00
2023-10-17T05:51:52.403Z,4.00
2023-10-17T05:54:59.900Z,4.70
2023-10-17T05:57:44.001Z,4.88
2023-10-17T06:00:31.038Z,5.50
2023-10-17T06:03:16.549Z,5.18
2023-10-17T06:06:07.947Z,5.63
2023-10-17T06:08:56.992Z,4.78
2023-10-17T06:11:42.459Z,5.50
2023-10-17T06:14:27.920Z,5.68
2023-10-17T06:16:56.057Z,5.28
2023-10-17T06:19:25.762Z,5.50
2023-10-17T06:22:10.924Z,5.03
2023-10-17T06:25:03.459Z,5.00
2023-10-17T06:27:49.044Z,5.82
2023-10-17T06:30:36.493Z,5.80
2023-10-17T06:33:06.933Z,5.28
2023-10-17T06:35:38.677Z,5.15
2023-10-17T06:38:08.685Z,5.18
2023-10-17T06:40:39.104Z,8.55
2023-10-17T06:43:14.913Z,5.88
2023-10-17T06:45:56.106Z,5.20
2023-10-17T06:48:33.998Z,5.05
2023-10-17T06:51:20.211Z,5.50
2023-10-17T06:53:49.896Z,5.15
2023-10-17T06:56:19.578Z,5.32
2023-10-17T06:58:48.486Z,5.95
2023-10-17T07:01:27.667Z,5.18
2023-10-17T07:03:56.765Z,5.22
2023-10-17T07:06:26.985Z,5.95
2023-10-17T07:08:57.954Z,5.60
2023-10-17T07:11:28.848Z,5.35
2023-10-17T07:14:11.658Z,5.35
2023-10-17T07:16:58.638Z,5.15
2023-10-17T07:19:44.596Z,5.32
2023-10-17T07:22:16.105Z,5.28
2023-10-17T07:24:50.153Z,4.05
2023-10-17T07:27:28.370Z,4.72
2023-10-17T07:30:11.425Z,5.45
2023-10-17T07:32:50.718Z,4.60
2023-10-17T07:35:24.631Z,4.43
2023-10-17T07:37:56.817Z,4.60
2023-10-17T07:40:59.285Z,5.18
2023-10-17T07:43:32.265Z,4.55
2023-10-17T07:46:07.340Z,5.15
2023-10-17T07:48:36.289Z,4.22
2023-10-17T07:51:06.497Z,4.70
2023-10-17T07:53:34.697Z,4.20
2023-10-17T07:56:07.537Z,4.22
2023-10-17T07:58:43.368Z,3.97
2023-10-17T08:01:16.003Z,4.40
2023-10-17T08:03:52.470Z,4.30
2023-10-17T08:06:23.985Z,4.10
2023-10-17T08:08:53.453Z,4.43
2023-10-17T08:11:32.650Z,4.05
2023-10-17T08:14:07.460Z,4.47
2023-10-17T08:16:40.749Z,3.80
2023-10-17T08:19:16.005Z,4.22
2023-10-17T08:22:01.583Z,3.85
2023-10-17T08:24:34.996Z,3.70
2023-10-17T08:27:19.042Z,3.75
2023-10-17T08:29:50.716Z,3.60
2023-10-17T08:32:36.304Z,3.60
2023-10-17T08:35:10.864Z,3.83
2023-10-17T08:37:44.837Z,3.35
2023-10-17T08:40:33.512Z,3.63
2023-10-17T08:43:02.248Z,3.58
2023-10-17T08:45:38.213Z,3.58
2023-10-17T08:48:10.651Z,3.50
2023-10-17T08:50:41.052Z,3.22
2023-10-17T08:53:14.746Z,3.33
2023-10-17T08:55:43.856Z,2.97
2023-10-17T08:58:12.393Z,3.53
2023-10-17T09:00:56.470Z,3.17
2023-10-17T09:03:30.918Z,3.08
2023-10-17T09:06:07.914Z,3.30
2023-10-17T09:08:53.596Z,3.55
2023-10-17T09:11:31.838Z,3.58
2023-10-17T09:14:15.595Z,3.10
2023-10-17T09:16:52.197Z,2.75
2023-10-17T09:19:22.650Z,2.50
2023-10-17T09:21:51.410Z,2.50
2023-10-17T09:24:36.994Z,2.03
2023-10-17T09:27:11.167Z,1.70
2023-10-17T09:29:47.179Z,1.50
2023-10-17T09:32:34.580Z,2.15
2023-10-17T09:35:12.272Z,1.55
2023-10-17T09:37:43.169Z,3.35
2023-10-17T09:40:20.069Z,1.30
2023-10-17T09:42:48.780Z,1.70
2023-10-17T09:45:33.053Z,1.83
2023-10-17T09:48:08.089Z,1.42
2023-10-17T09:50:38.683Z,1.30
2023-10-17T09:53:17.960Z,1.98
2023-10-17T09:55:50.156Z,1.13
2023-10-17T09:58:23.270Z,1.00
2023-10-17T10:00:54.915Z,1.00
2023-10-17T10:03:29.416Z,1.10
2023-10-17T10:06:22.541Z,3.90
2023-10-17T10:08:51.141Z,1.30
2023-10-17T10:11:19.257Z,1.20
2023-10-17T10:14:05.982Z,1.50
2023-10-17T10:16:57.448Z,1.48
2023-10-17T10:20:01.052Z,1.70
2023-10-17T10:22:50.787Z,1.10
2023-10-17T10:25:20.997Z,1.30
2023-10-17T10:27:51.575Z,1.30
2023-10-17T10:30:38.796Z,1.38
2023-10-17T10:33:08.103Z,1.00
2023-10-17T10:35:38.182Z,1.25
2023-10-17T10:38:07.470Z,1.50
2023-10-17T10:40:41.228Z,1.50
2023-10-17T10:43:12.415Z,1.40
2023-10-17T10:45:49.118Z,1.27
2023-10-17T10:48:19.327Z,1.40
2023-10-17T10:50:50.805Z,1.50
2023-10-17T10:53:24.349Z,1.13
2023-10-17T10:56:01.100Z,3.03
2023-10-17T10:58:31.886Z,1.20
2023-10-17T11:01:01.628Z,1.20
2023-10-17T11:03:31.133Z,1.10
2023-10-17T11:06:04.279Z,1.30
2023-10-17T11:08:38.006Z,1.10
2023-10-17T11:11:07.233Z,1.30
2023-10-17T11:13:37.244Z,1.13
2023-10-17T11:16:07.384Z,1.55
2023-10-17T11:18:36.111Z,1.85
2023-10-17T11:21:06.468Z,5.93
2023-10-17T11:23:37.091Z,4.30
2023-10-17T11:26:25.005Z,1.20
2023-10-17T11:28:56.510Z,1.52
2023-10-17T11:31:25.973Z,1.30
2023-10-17T11:34:00.077Z,1.40
2023-10-17T11:36:36.886Z,1.48
2023-10-17T11:39:07.255Z,1.27
2023-10-17T11:41:47.516Z,1.00
2023-10-17T11:44:17.052Z,2.58
2023-10-17T11:46:56.908Z,1.40
2023-10-17T11:49:29.427Z,1.20
2023-10-17T11:52:05.281Z,1.00
2023-10-17T11:54:35.781Z,1.08
2023-10-17T11:57:15.611Z,1.23
2023-10-17T12:00:07.699Z,1.20
2023-10-17T12:02:37.541Z,1.17
2023-10-17T12:05:06.348Z,1.17
2023-10-17T12:07:43.644Z,1.00
2023-10-17T12:10:12.032Z,1.08
2023-10-17T12:12:40.786Z,1.40
2023-10-17T12:15:14.402Z,1.20
2023-10-17T12:17:42.873Z,1.00
2023-10-17T12:20:13.077Z,1.20
2023-10-17T12:22:42.820Z,1.48
2023-10-17T12:25:12.112Z,1.33
2023-10-17T12:27:41.039Z,1.73
2023-10-17T12:30:12.585Z,1.30
2023-10-17T12:32:40.798Z,1.10
2023-10-17T12:35:13.662Z,1.00
2023-10-17T12:37:45.492Z,1.20
2023-10-17T12:40:21.848Z,1.10
2023-10-17T12:42:50.853Z,3.17
2023-10-17T12:45:20.863Z,1.58
2023-10-17T12:47:49.950Z,1.30
2023-10-17T12:50:19.945Z,1.42
2023-10-17T12:52:53.357Z,1.50
2023-10-17T12:55:21.763Z,1.20
2023-10-17T12:57:49.957Z,1.00
2023-10-17T13:00:22.860Z,1.40
2023-10-17T13:02:53.819Z,1.40
2023-10-17T13:05:22.597Z,1.50
2023-10-17T13:07:53.497Z,1.00
2023-10-17T13:10:21.837Z,1.10
2023-10-17T13:12:50.033Z,1.30
2023-10-17T13:15:19.206Z,1.20
2023-10-17T13:17:48.435Z,1.20
2023-10-17T13:20:30.697Z,1.20
2023-10-17T13:23:05.626Z,1.15
2023-10-17T13:25:37.593Z,1.35
2023-10-17T13:28:06.314Z,1.10
2023-10-17T13:30:34.669Z,1.15
2023-10-17T13:33:03.121Z,1.30
2023-10-17T13:35:31.636Z,1.25
2023-10-17T13:38:00.652Z,1.00
2023-10-17T13:40:33.399Z,1.10
2023-10-17T13:43:02.898Z,0.90
2023-10-17T13:45:31.128Z,1.10
2023-10-17T13:47:59.428Z,1.08
2023-10-17T13:50:27.647Z,0.98
2023-10-17T13:53:01.054Z,1.10
2023-10-17T13:55:31.268Z,1.00
2023-10-17T13:58:02.461Z,1.10
2023-10-17T14:00:44.255Z,1.17
2023-10-17T14:03:13.984Z,1.10
2023-10-17T14:05:44.550Z,4.32
2023-10-17T14:08:14.626Z,1.83
2023-10-17T14:10:44.914Z,1.42
2023-10-17T14:13:13.818Z,1.15
2023-10-17T14:15:42.133Z,1.10
2023-10-17T14:18:15.953Z,0.93
2023-10-17T14:21:05.649Z,1.02
2023-10-17T14:23:46.376Z,2.75
2023-10-17T14:26:16.658Z,1.80
2023-10-17T14:28:45.178Z,1.23
2023-10-17T14:31:13.389Z,0.90
2023-10-17T14:33:42.289Z,1.10
2023-10-17T14:36:10.775Z,1.00
2023-10-17T14:38:39.008Z,1.00
2023-10-17T14:41:10.628Z,0.90
2023-10-17T14:43:44.877Z,1.30
2023-10-17T14:46:13.284Z,1.80
2023-10-17T14:48:42.690Z,2.35
2023-10-17T14:51:13.052Z,2.40
2023-10-17T14:53:50.920Z,2.13
2023-10-17T14:56:20.609Z,2.80
2023-10-17T14:58:50.941Z,2.80
2023-10-17T15:01:19.609Z,2.80
2023-10-17T15:03:48.749Z,2.50
2023-10-17T15:06:17.119Z,2.67
2023-10-17T15:08:45.397Z,2.90
2023-10-17T15:11:13.821Z,3.08
2023-10-17T15:13:42.055Z,2.85
2023-10-17T15:16:19.989Z,3.10
2023-10-17T15:18:49.431Z,2.10
2023-10-17T15:21:20.014Z,2.20
2023-10-17T15:23:48.244Z,2.50
2023-10-17T15:26:16.504Z,2.40
2023-10-17T15:28:46.234Z,3.00
2023-10-17T15:31:16.569Z,2.72
2023-10-17T15:33:46.675Z,2.95
2023-10-17T15:36:16.001Z,2.72
2023-10-17T15:38:46.642Z,2.80
2023-10-17T15:41:17.263Z,2.53
2023-10-17T15:43:46.724Z,2.63
2023-10-17T15:46:16.780Z,2.40
2023-10-17T15:48:46.484Z,2.33
2023-10-17T15:51:21.318Z,2.35
2023-10-17T15:53:49.732Z,2.67
2023-10-17T15:56:17.855Z,2.22
2023-10-17T15:58:47.212Z,2.33
2023-10-17T16:01:15.467Z,2.58
2023-10-17T16:03:47.643Z,2.08
2023-10-17T16:06:19.317Z,2.00
2023-10-17T16:08:50.593Z,2.30
2023-10-17T16:11:21.064Z,1.98
2023-10-17T16:13:49.296Z,2.60
2023-10-17T16:16:17.728Z,2.05
2023-10-17T16:18:46.976Z,2.40
2023-10-17T16:21:16.772Z,3.30
2023-10-17T16:23:48.816Z,3.53
2023-10-17T16:26:18.577Z,4.45
2023-10-17T16:28:47.233Z,4.50
2023-10-17T16:31:17.065Z,4.68
2023-10-17T16:33:45.620Z,4.90
2023-10-17T16:36:13.719Z,4.93
2023-10-17T16:38:47.463Z,5.47
2023-10-17T16:41:15.875Z,6.38
2023-10-17T16:43:43.990Z,6.10
2023-10-17T16:46:12.965Z,6.10
2023-10-17T16:48:41.463Z,7.05
2023-10-17T16:51:09.604Z,6.22
2023-10-17T16:53:39.742Z,5.40
2023-10-17T16:56:10.748Z,5.82
2023-10-17T16:58:39.437Z,4.90
2023-10-17T17:01:08.352Z,5.38
2023-10-17T17:03:37.053Z,4.82
2023-10-17T17:06:07.645Z,4.72
2023-10-17T17:08:36.921Z,4.07
2023-10-17T17:11:06.184Z,4.35
2023-10-17T17:13:36.283Z,3.70
2023-10-17T17:16:05.040Z,3.60
2023-10-17T17:21:08.585Z,4.20
2023-10-17T17:23:36.908Z,3.38
2023-10-17T17:26:06.532Z,3.28
2023-10-17T17:28:36.583Z,3.47
2023-10-17T17:31:07.732Z,3.45
2023-10-17T17:33:35.959Z,3.70
2023-10-17T17:36:06.478Z,3.58
2023-10-17T17:38:36.392Z,3.70
2023-10-17T17:41:06.712Z,4.07
2023-10-17T17:43:36.325Z,3.35
2023-10-17T17:46:06.159Z,3.67
2023-10-17T17:48:34.594Z,3.88
2023-10-17T17:51:03.577Z,3.78
2023-10-17T17:53:31.991Z,3.75
2023-10-17T17:56:00.184Z,3.20
2023-10-17T17:58:29.820Z,4.45
2023-10-17T18:00:59.417Z,4.18
2023-10-17T18:03:28.915Z,4.00
2023-10-17T18:05:57.183Z,4.18
2023-10-17T18:08:26.225Z,4.07
2023-10-17T18:10:54.525Z,4.20
2023-10-17T18:13:23.094Z,4.63
2023-10-17T18:15:54.923Z,4.50
2023-10-17T18:18:24.792Z,4.93
2023-10-17T18:21:03.535Z,4.82
2023-10-17T18:23:32.436Z,4.55
2023-10-17T18:26:00.935Z,4.70
2023-10-17T18:28:29.488Z,4.53
2023-10-17T18:31:08.638Z,4.90
2023-10-17T18:33:38.306Z,5.07
2023-10-17T18:36:06.665Z,4.57
2023-10-17T18:38:34.857Z,5.00
2023-10-17T18:41:03.442Z,4.53
2023-10-17T18:43:31.521Z,5.00
2023-10-17T18:45:59.993Z,5.07
2023-10-17T18:48:28.355Z,4.45
2023-10-17T18:51:02.614Z,4.85
2023-10-17T18:53:32.958Z,4.90
2023-10-17T18:56:01.957Z,5.00
2023-10-17T18:58:30.395Z,4.80
2023-10-17T19:01:13.107Z,5.15
2023-10-17T19:03:43.484Z,4.68
2023-10-17T19:06:14.344Z,5.00
2023-10-17T19:08:43.491Z,5.43
2023-10-17T19:11:13.265Z,4.90
2023-10-17T19:13:42.488Z,4.80
2023-10-17T19:16:15.792Z,4.63
2023-10-17T19:18:44.349Z,4.43
2023-10-17T19:21:15.706Z,4.38
2023-10-17T19:23:50.217Z,4.53
2023-10-17T19:26:20.232Z,4.50
2023-10-17T19:28:49.213Z,4.00
2023-10-17T19:31:18.307Z,4.43
2023-10-17T19:33:46.508Z,4.47
2023-10-17T19:36:16.501Z,4.43
2023-10-17T19:38:44.690Z,4.95
2023-10-17T19:41:13.190Z,4.93
2023-10-17T19:43:41.933Z,4.80
2023-10-17T19:46:12.024Z,5.20
2023-10-17T19:48:40.376Z,4.82
2023-10-17T19:51:08.644Z,5.30
2023-10-17T19:53:39.668Z,4.72
2023-10-17T19:56:08.676Z,4.78
2023-10-17T19:58:37.002Z,5.18
2023-10-17T20:01:08.620Z,5.20
2023-10-17T20:03:37.060Z,5.38
2023-10-17T20:06:06.826Z,5.38
2023-10-17T20:08:35.159Z,6.05
2023-10-17T20:11:06.078Z,5.90
2023-10-17T20:13:34.225Z,4.97
2023-10-17T20:16:02.558Z,5.35
2023-10-17T20:18:31.847Z,6.05
2023-10-17T20:20:59.959Z,5.30
2023-10-17T20:23:28.058Z,4.50
2023-10-17T20:25:56.331Z,4.75
2023-10-17T20:28:25.806Z,5.10
2023-10-17T20:30:53.933Z,4.45
2023-10-17T20:33:22.405Z,4.10
2023-10-17T20:35:50.780Z,4.38
2023-10-17T20:38:19.043Z,4.15
2023-10-17T20:40:47.543Z,3.75
2023-10-17T20:43:15.826Z,3.67
2023-10-17T20:45:46.306Z,4.15
2023-10-17T20:48:14.584Z,3.70
2023-10-17T20:50:42.890Z,3.33
2023-10-17T20:53:11.218Z,3.75
2023-10-17T20:55:39.362Z,4.35
2023-10-17T20:58:07.625Z,3.63
2023-10-17T21:00:36.933Z,4.07
2023-10-17T21:03:11.194Z,3.85
2023-10-17T21:05:39.557Z,4.00
2023-10-17T21:08:08.375Z,4.10
2023-10-17T21:10:41.992Z,4.10
2023-10-17T21:13:11.336Z,3.85
2023-10-17T21:15:39.889Z,4.80
2023-10-17T21:18:12.308Z,4.95
2023-10-17T21:20:40.606Z,4.90
2023-10-17T21:23:08.777Z,4.97
2023-10-17T21:25:38.531Z,4.53
2023-10-17T21:28:08.803Z,4.68
2023-10-17T21:30:38.723Z,5.63
2023-10-17T21:33:07.164Z,4.85
2023-10-17T21:35:38.327Z,5.10
2023-10-17T21:38:06.736Z,4.28
2023-10-17T21:40:35.469Z,4.63
2023-10-17T21:43:04.032Z,4.95
2023-10-17T21:45:32.546Z,4.75
2023-10-17T21:48:00.825Z,4.13
2023-10-17T21:50:29.060Z,4.60
2023-10-17T21:52:59.151Z,4.32
2023-10-17T21:55:27.379Z,4.25
2023-10-17T21:57:55.916Z,4.05
2023-10-17T22:00:28.868Z,3.83
2023-10-17T22:02:57.805Z,3.78
2023-10-17T22:05:26.597Z,3.92
2023-10-17T22:07:56.925Z,3.80
2023-10-17T22:10:27.217Z,3.90
2023-10-17T22:12:55.489Z,3.85
2023-10-17T22:15:24.146Z,4.97
2023-10-17T22:17:52.315Z,3.60
2023-10-17T22:20:20.641Z,3.65
2023-10-17T22:22:49.039Z,3.53
2023-10-17T22:25:18.950Z,3.78
2023-10-17T22:27:49.177Z,3.47
2023-10-17T22:30:18.082Z,3.35
2023-10-17T22:32:46.359Z,3.20
2023-10-17T22:35:14.883Z,3.40
2023-10-17T22:37:43.051Z,3.60
2023-10-17T22:40:14.111Z,3.65
2023-10-17T22:42:42.634Z,3.97
2023-10-17T22:45:13.028Z,3.60
2023-10-17T22:47:41.828Z,3.53
2023-10-17T22:50:11.586Z,3.60
2023-10-17T22:52:40.039Z,3.63
2023-10-17T22:55:11.060Z,3.17
2023-10-17T22:57:42.634Z,3.50
2023-10-17T23:00:15.625Z,3.88
2023-10-17T23:02:47.561Z,3.35
2023-10-17T23:05:17.237Z,3.30
2023-10-17T23:07:46.363Z,3.15
2023-10-17T23:10:16.576Z,3.42
2023-10-17T23:12:45.468Z,3.63
2023-10-17T23:15:15.750Z,4.75
2023-10-17T23:17:46.720Z,5.43
2023-10-17T23:20:16.513Z,4.65
2023-10-17T23:22:45.404Z,5.85
2023-10-17T23:25:14.248Z,5.18
2023-10-17T23:27:43.035Z,4.53
2023-10-17T23:30:13.134Z,5.00
2023-10-17T23:32:43.018Z,4.63
2023-10-17T23:35:11.392Z,3.63
2023-10-17T23:37:40.660Z,4.10
2023-10-17T23:40:11.102Z,3.92
2023-10-17T23:42:39.645Z,3.63
2023-10-17T23:45:08.828Z,3.83
2023-10-17T23:47:38.105Z,3.38
2023-10-17T23:50:16.740Z,3.30
2023-10-17T23:52:45.666Z,3.35
2023-10-17T23:55:15.492Z,3.00
2023-10-17T23:57:47.872Z,2.95
